createdAt,value
2023-02-03T00:03:33.598Z,18.83
2023-02-03T00:08:36.933Z,18.40
2023-02-03T00:13:39.533Z,19.93
2023-02-03T00:18:43.482Z,22.63
2023-02-03T00:23:46.086Z,18.33
2023-02-03T00:28:48.736Z,22.37
2023-02-03T00:33:57.309Z,16.77
2023-02-03T00:39:01.322Z,15.97
2023-02-03T00:44:04.025Z,22.73
2023-02-03T00:49:08.080Z,19.07
2023-02-03T00:54:10.946Z,22.83
2023-02-03T00:59:14.047Z,17.60
2023-02-03T01:04:18.043Z,28.73
2023-02-03T01:09:20.625Z,19.37
2023-02-03T01:14:23.169Z,22.90
2023-02-03T01:19:27.253Z,15.87
2023-02-03T01:24:30.464Z,17.83
2023-02-03T01:29:33.081Z,18.57
2023-02-03T01:34:37.149Z,14.70
2023-02-03T01:39:39.719Z,14.93
2023-02-03T01:44:45.917Z,18.53
2023-02-03T01:49:54.078Z,16.63
2023-02-03T01:55:00.153Z,20.80
2023-02-03T02:05:42.556Z,19.87
2023-02-03T02:10:46.590Z,18.57
2023-02-03T02:15:55.822Z,12.20
2023-02-03T02:21:23.106Z,16.63
2023-02-03T02:26:44.664Z,17.60
2023-02-03T02:32:19.436Z,17.13
2023-02-03T02:37:30.257Z,18.00
2023-02-03T02:49:02.464Z,16.00
2023-02-03T02:54:10.047Z,12.40
2023-02-03T02:59:13.720Z,14.80
2023-02-03T03:04:23.115Z,10.47
2023-02-03T03:09:35.866Z,11.70
2023-02-03T03:14:42.221Z,12.83
2023-02-03T03:19:51.735Z,13.47
2023-02-03T03:25:00.974Z,10.00
2023-02-03T03:30:08.945Z,9.23
2023-02-03T03:35:13.546Z,13.07
2023-02-03T03:40:23.635Z,11.73
2023-02-03T03:45:32.121Z,8.97
2023-02-03T03:50:40.403Z,11.83
2023-02-03T03:55:48.099Z,7.80
2023-02-03T04:00:51.934Z,14.73
2023-02-03T04:05:55.817Z,14.73
2023-02-03T04:10:58.378Z,11.77
2023-02-03T04:16:01.035Z,10.83
2023-02-03T04:21:05.223Z,13.67
2023-02-03T04:26:07.773Z,9.77
2023-02-03T04:31:10.459Z,10.53
2023-02-03T04:36:16.125Z,6.43
2023-02-03T04:41:19.192Z,8.27
2023-02-03T04:46:22.314Z,13.97
2023-02-03T04:51:26.206Z,11.10
2023-02-03T04:56:29.188Z,7.50
2023-02-03T05:01:31.865Z,7.93
2023-02-03T05:06:35.803Z,7.87
2023-02-03T05:11:38.831Z,5.43
2023-02-03T05:16:41.473Z,6.70
2023-02-03T05:21:45.377Z,6.17
2023-02-03T05:26:47.940Z,8.40
2023-02-03T05:31:50.627Z,6.20
2023-02-03T05:36:54.580Z,7.63
2023-02-03T05:41:58.488Z,3.80
2023-02-03T05:47:01.142Z,6.50
2023-02-03T05:52:05.100Z,8.93
2023-02-03T05:57:07.658Z,7.47
2023-02-03T06:02:10.211Z,7.60
2023-02-03T06:07:14.089Z,9.70
2023-02-03T06:12:16.806Z,9.07
2023-02-03T06:17:19.732Z,10.10
2023-02-03T06:22:23.617Z,9.37
2023-02-03T06:27:26.220Z,6.27
2023-02-03T06:32:29.285Z,8.93
2023-02-03T06:37:33.303Z,6.77
2023-02-03T06:42:35.848Z,7.67
2023-02-03T06:47:41.100Z,9.30
2023-02-03T06:52:45.131Z,5.60
2023-02-03T06:57:49.258Z,7.23
2023-02-03T07:02:55.128Z,5.80
2023-02-03T07:07:59.356Z,7.67
2023-02-03T07:13:05.677Z,8.63
2023-02-03T07:18:08.358Z,8.83
2023-02-03T07:23:12.236Z,7.20
2023-02-03T07:28:15.409Z,7.80
2023-02-03T07:33:17.969Z,4.70
2023-02-03T07:38:22.197Z,8.10
2023-02-03T07:43:25.218Z,9.23
2023-02-03T07:48:27.765Z,8.47
2023-02-03T07:53:31.870Z,7.23
2023-02-03T07:58:34.853Z,8.87
2023-02-03T08:03:37.417Z,6.47
2023-02-03T08:08:41.968Z,9.70
2023-02-03T08:13:44.518Z,4.20
2023-02-03T08:18:47.221Z,6.17
2023-02-03T08:23:51.133Z,6.70
2023-02-03T08:28:53.717Z,9.10
2023-02-03T08:33:56.301Z,5.73
2023-02-03T08:39:00.203Z,5.90
2023-02-03T08:44:03.177Z,9.27
2023-02-03T08:49:06.214Z,6.47
2023-02-03T08:54:10.126Z,9.50
2023-02-03T08:59:13.289Z,7.03
2023-02-03T09:04:19.144Z,9.83
2023-02-03T09:09:23.884Z,6.20
2023-02-03T09:14:27.033Z,10.03
2023-02-03T09:19:29.842Z,5.97
2023-02-03T09:24:33.738Z,6.63
2023-02-03T09:29:36.354Z,7.63
2023-02-03T09:34:39.747Z,18.07
2023-02-03T09:39:43.637Z,8.40
2023-02-03T09:44:52.646Z,5.03
2023-02-03T09:49:59.725Z,7.17
2023-02-03T09:55:06.653Z,7.90
2023-02-03T10:00:17.950Z,8.30
2023-02-03T10:05:26.210Z,10.63
2023-02-03T10:10:39.697Z,10.83
2023-02-03T10:16:06.974Z,8.27
2023-02-03T10:21:16.267Z,5.13
2023-02-03T10:26:24.689Z,8.03
2023-02-03T10:31:29.339Z,10.50
2023-02-03T10:36:43.535Z,10.50
2023-02-03T10:41:48.350Z,8.90
2023-02-03T10:46:50.897Z,17.53
2023-02-03T10:51:56.365Z,6.20
2023-02-03T10:57:07.648Z,7.90
2023-02-03T11:02:12.039Z,10.23
2023-02-03T11:07:25.238Z,12.10
2023-02-03T11:12:29.128Z,10.00
2023-02-03T11:17:32.989Z,11.23
2023-02-03T11:22:38.673Z,9.27
2023-02-03T11:27:43.209Z,13.80
2023-02-03T11:32:48.483Z,16.23
2023-02-03T11:37:53.095Z,8.10
2023-02-03T11:43:03.844Z,15.70
2023-02-03T11:48:17.801Z,6.70
2023-02-03T11:53:30.458Z,6.37
2023-02-03T11:59:04.044Z,9.90
2023-02-03T12:04:25.280Z,12.60
2023-02-03T12:09:40.302Z,8.70
2023-02-03T12:14:53.585Z,8.73
2023-02-03T12:20:07.524Z,11.13
2023-02-03T12:25:26.218Z,9.53
2023-02-03T12:30:35.923Z,11.20
2023-02-03T12:35:46.199Z,12.00
2023-02-03T12:40:55.122Z,7.97
2023-02-03T12:46:07.229Z,9.37
2023-02-03T12:51:16.193Z,35.33
2023-02-03T12:56:24.118Z,7.63
2023-02-03T13:01:35.374Z,10.00
2023-02-03T13:06:48.225Z,10.27
2023-02-03T13:11:57.792Z,11.23
2023-02-03T13:17:08.989Z,8.83
2023-02-03T13:22:13.786Z,6.97
2023-02-03T13:27:31.145Z,10.73
2023-02-03T13:32:55.261Z,8.40
2023-02-03T13:38:20.789Z,10.47
2023-02-03T13:43:38.256Z,9.27
2023-02-03T13:48:46.523Z,13.23
2023-02-03T13:53:50.669Z,5.80
2023-02-03T13:59:01.784Z,9.73
2023-02-03T14:04:08.222Z,9.73
2023-02-03T14:09:21.729Z,8.13
2023-02-03T14:15:02.951Z,8.37
2023-02-03T14:20:51.270Z,9.80
2023-02-03T14:25:56.934Z,13.97
2023-02-03T14:31:10.508Z,15.93
2023-02-03T14:36:29.889Z,18.40
2023-02-03T14:41:46.776Z,15.93
2023-02-03T14:47:00.299Z,14.23
2023-02-03T14:52:23.379Z,12.33
2023-02-03T14:57:36.439Z,9.70
2023-02-03T15:03:19.802Z,14.00
2023-02-03T15:08:40.747Z,11.93
2023-02-03T15:13:43.935Z,13.03
2023-02-03T15:18:47.056Z,11.67
2023-02-03T15:23:51.893Z,6.37
2023-02-03T15:28:55.664Z,11.47
2023-02-03T15:34:00.754Z,15.77
2023-02-03T15:39:13.972Z,13.30
2023-02-03T15:44:25.934Z,16.70
2023-02-03T15:49:31.448Z,16.57
2023-02-03T15:54:41.040Z,13.50
2023-02-03T15:59:47.369Z,11.50
2023-02-03T16:04:51.154Z,23.87
2023-02-03T16:09:56.415Z,15.83
2023-02-03T16:15:00.605Z,17.43
2023-02-03T16:20:22.718Z,16.40
2023-02-03T16:25:29.359Z,18.30
2023-02-03T16:30:49.839Z,10.00
2023-02-03T16:36:09.898Z,12.70
2023-02-03T16:41:35.908Z,18.23
2023-02-03T16:46:56.428Z,14.37
2023-02-03T16:51:59.063Z,16.30
2023-02-03T16:57:02.967Z,11.47
2023-02-03T17:02:05.550Z,12.97
2023-02-03T17:07:08.162Z,24.30
2023-02-03T17:12:13.118Z,15.43
2023-02-03T17:17:16.033Z,21.90
2023-02-03T17:22:18.711Z,17.63
2023-02-03T17:27:22.630Z,25.73
2023-02-03T17:32:25.200Z,17.33
2023-02-03T17:37:27.732Z,24.00
2023-02-03T17:58:19.207Z,18.80
2023-02-03T18:03:21.753Z,21.53
2023-02-03T18:08:25.364Z,15.10
2023-02-03T18:13:32.605Z,19.17
2023-02-03T18:18:36.071Z,16.83
2023-02-03T18:23:39.190Z,20.47
2023-02-03T18:28:43.041Z,11.13
2023-02-03T18:33:47.586Z,15.13
2023-02-03T18:38:50.238Z,21.37
2023-02-03T18:43:54.502Z,24.47
2023-02-03T18:48:57.242Z,24.60
2023-02-03T18:54:00.429Z,20.97
2023-02-03T18:59:09.425Z,26.53
2023-02-03T19:04:13.946Z,17.03
2023-02-03T19:09:17.706Z,21.73
2023-02-03T19:14:23.410Z,24.73
2023-02-03T19:19:25.962Z,34.93
2023-02-03T19:24:28.533Z,24.43
2023-02-03T19:29:32.470Z,20.10
2023-02-03T19:34:35.192Z,21.20
2023-02-03T19:39:38.472Z,23.50
2023-02-03T19:44:42.560Z,17.53
2023-02-03T19:49:45.087Z,16.43
2023-02-03T19:54:47.664Z,13.53
2023-02-03T19:59:52.820Z,25.63
2023-02-03T20:05:06.198Z,22.67
2023-02-03T20:10:10.928Z,15.80
2023-02-03T20:15:15.043Z,22.80
2023-02-03T20:20:26.869Z,18.43
2023-02-03T20:25:29.493Z,23.40
2023-02-03T20:30:33.993Z,17.70
2023-02-03T20:35:38.235Z,20.60
2023-02-03T20:40:40.764Z,17.03
2023-02-03T20:45:46.738Z,18.83
2023-02-03T20:50:50.166Z,13.83
2023-02-03T20:55:58.405Z,26.23
2023-02-03T21:01:03.850Z,21.97
2023-02-03T21:06:14.155Z,17.30
2023-02-03T21:11:19.533Z,17.90
2023-02-03T21:16:27.443Z,19.37
2023-02-03T21:21:35.500Z,21.33
2023-02-03T21:26:38.481Z,20.33
2023-02-03T21:31:45.756Z,26.40
2023-02-03T21:36:48.335Z,29.23
2023-02-03T21:41:50.872Z,21.70
2023-02-03T21:46:54.798Z,25.33
2023-02-03T21:51:57.415Z,24.27
2023-02-03T21:57:01.653Z,22.80
2023-02-03T22:02:36.694Z,26.73
2023-02-03T22:07:39.860Z,28.10
2023-02-03T22:12:42.396Z,29.23
2023-02-03T22:17:48.131Z,28.97
2023-02-03T22:22:50.679Z,23.57
2023-02-03T22:27:53.304Z,20.10
2023-02-03T22:32:57.934Z,25.90
2023-02-03T22:38:00.514Z,18.67
2023-02-03T22:43:03.104Z,19.70
2023-02-03T22:48:07.654Z,16.63
2023-02-03T22:53:10.247Z,19.13
2023-02-03T22:58:12.851Z,18.63
2023-02-03T23:03:17.323Z,33.27
2023-02-03T23:08:19.886Z,19.27
2023-02-03T23:13:22.430Z,13.90
2023-02-03T23:18:26.344Z,22.67
2023-02-03T23:23:28.910Z,21.87
2023-02-03T23:28:32.143Z,23.47
2023-02-03T23:33:36.006Z,16.70
2023-02-03T23:38:38.517Z,18.30
2023-02-03T23:43:41.064Z,16.77
2023-02-03T23:48:45.124Z,26.93
2023-02-03T23:53:47.691Z,23.57
2023-02-03T23:58:50.213Z,20.70
